createdAt,value
2018-04-23T00:00:02.269Z,19.17
2018-04-23T00:02:28.959Z,20.40
2018-04-23T00:04:55.602Z,20.77
2018-04-23T00:07:22.772Z,20.70
2018-04-23T00:09:49.421Z,22.62
2018-04-23T00:12:16.141Z,22.25
2018-04-23T00:14:42.775Z,20.88
2018-04-23T00:17:09.448Z,19.52
2018-04-23T00:19:36.094Z,22.02
2018-04-23T00:22:03.214Z,21.52
2018-04-23T00:24:29.918Z,20.55
2018-04-23T00:26:56.536Z,21.73
2018-04-23T00:29:23.206Z,20.37
2018-04-23T00:31:49.854Z,19.90
2018-04-23T00:34:16.554Z,21.25
2018-04-23T00:36:43.283Z,19.65
2018-04-23T00:39:09.889Z,19.83
2018-04-23T00:41:36.542Z,19.50
2018-04-23T00:44:03.926Z,18.25
2018-04-23T00:46:34.692Z,19.23
2018-04-23T00:49:01.337Z,18.37
2018-04-23T00:51:28.011Z,19.73
2018-04-23T00:53:54.650Z,18.45
2018-04-23T00:56:21.380Z,19.55
2018-04-23T00:58:48.037Z,18.80
2018-04-23T01:01:14.675Z,20.30
2018-04-23T01:03:41.321Z,19.25
2018-04-23T01:06:08.902Z,18.85
2018-04-23T01:08:35.697Z,19.45
2018-04-23T01:11:02.342Z,20.10
2018-04-23T01:13:33.060Z,19.80
2018-04-23T01:16:00.656Z,30.15
2018-04-23T01:18:27.358Z,35.97
2018-04-23T01:20:54.123Z,28.77
2018-04-23T01:23:21.687Z,27.02
2018-04-23T01:25:52.306Z,28.67
2018-04-23T01:28:19.077Z,28.10
2018-04-23T01:30:45.721Z,29.10
2018-04-23T01:33:12.390Z,29.35
2018-04-23T01:35:39.102Z,30.30
2018-04-23T01:38:10.739Z,30.60
2018-04-23T01:40:37.470Z,31.35
2018-04-23T01:43:04.244Z,33.90
2018-04-23T01:45:30.854Z,34.75
2018-04-23T01:47:57.485Z,36.50
2018-04-23T01:50:24.192Z,37.67
2018-04-23T01:52:50.841Z,35.38
2018-04-23T01:55:17.493Z,33.17
2018-04-23T01:57:44.145Z,31.80
2018-04-23T02:00:10.762Z,33.17
2018-04-23T02:02:37.418Z,33.35
2018-04-23T02:05:04.050Z,31.83
2018-04-23T02:07:30.689Z,29.85
2018-04-23T02:09:57.982Z,29.83
2018-04-23T02:12:24.618Z,30.45
2018-04-23T02:14:51.290Z,31.27
2018-04-23T02:17:17.917Z,29.58
2018-04-23T02:19:44.543Z,27.27
2018-04-23T02:22:11.815Z,29.67
2018-04-23T02:24:38.457Z,29.87
2018-04-23T02:27:05.229Z,29.98
2018-04-23T02:29:31.877Z,28.05
2018-04-23T02:31:58.603Z,26.50
2018-04-23T02:34:25.254Z,27.65
2018-04-23T02:36:52.482Z,27.87
2018-04-23T02:39:19.695Z,27.80
2018-04-23T02:41:46.402Z,28.10
2018-04-23T02:44:13.085Z,30.30
2018-04-23T02:46:39.780Z,28.87
2018-04-23T02:49:06.428Z,28.30
2018-04-23T02:51:33.155Z,27.67
2018-04-23T02:53:59.886Z,30.62
2018-04-23T02:56:26.542Z,32.05
2018-04-23T02:58:53.763Z,31.80
2018-04-23T03:01:20.469Z,30.30
2018-04-23T03:03:48.054Z,29.70
2018-04-23T03:06:15.590Z,30.95
2018-04-23T03:08:42.247Z,34.50
2018-04-23T03:11:08.882Z,32.72
2018-04-23T03:13:35.554Z,32.25
2018-04-23T03:16:02.166Z,32.25
2018-04-23T03:18:30.447Z,31.23
2018-04-23T03:20:57.078Z,32.55
2018-04-23T03:23:23.769Z,32.25
2018-04-23T03:25:51.118Z,30.85
2018-04-23T03:28:17.770Z,30.10
2018-04-23T03:30:44.394Z,31.35
2018-04-23T03:33:11.036Z,31.87
2018-04-23T03:35:37.664Z,29.20
2018-04-23T03:38:08.224Z,32.38
2018-04-23T03:40:34.863Z,33.05
2018-04-23T03:43:01.497Z,33.17
2018-04-23T03:45:28.137Z,35.45
2018-04-23T03:47:54.880Z,33.30
2018-04-23T03:50:21.529Z,33.35
2018-04-23T03:52:48.831Z,36.28
2018-04-23T03:55:15.468Z,32.65
2018-04-23T03:57:42.170Z,33.85
2018-04-23T04:00:08.989Z,34.70
2018-04-23T04:02:35.612Z,35.08
2018-04-23T04:05:02.274Z,38.72
2018-04-23T04:07:29.339Z,37.42
2018-04-23T04:09:55.972Z,35.50
2018-04-23T04:12:28.610Z,38.00
2018-04-23T04:15:01.026Z,35.75
2018-04-23T04:17:48.653Z,36.47
2018-04-23T04:20:15.416Z,38.92
2018-04-23T04:22:42.030Z,40.28
2018-04-23T04:25:08.676Z,41.75
2018-04-23T04:27:35.305Z,40.97
2018-04-23T04:30:02.007Z,38.90
2018-04-23T04:32:28.621Z,41.28
2018-04-23T04:34:59.505Z,41.90
2018-04-23T04:37:26.155Z,41.20
2018-04-23T04:39:57.215Z,35.97
2018-04-23T04:42:23.882Z,38.22
2018-04-23T04:44:50.531Z,36.03
2018-04-23T04:47:17.166Z,36.00
2018-04-23T04:49:47.800Z,36.70
2018-04-23T04:52:14.485Z,34.42
2018-04-23T04:54:41.800Z,37.20
2018-04-23T04:57:08.462Z,36.47
2018-04-23T04:59:35.131Z,37.45
2018-04-23T05:02:01.774Z,38.72
2018-04-23T05:04:28.455Z,36.60
2018-04-23T05:06:55.530Z,37.38
2018-04-23T05:09:22.318Z,33.10
2018-04-23T05:11:48.959Z,31.50
2018-04-23T05:14:15.627Z,28.33
2018-04-23T05:16:42.258Z,27.42
2018-04-23T05:19:09.209Z,27.75
2018-04-23T05:21:36.595Z,28.20
2018-04-23T05:24:03.265Z,28.10
2018-04-23T05:26:29.913Z,24.98
2018-04-23T05:28:56.603Z,24.40
2018-04-23T05:31:23.245Z,22.92
2018-04-23T05:33:49.880Z,21.60
2018-04-23T05:36:17.091Z,21.25
2018-04-23T05:38:43.719Z,21.02
2018-04-23T05:41:10.399Z,20.30
2018-04-23T05:43:37.033Z,17.33
2018-04-23T05:46:03.683Z,17.17
2018-04-23T05:48:30.311Z,19.80
2018-04-23T05:50:56.945Z,17.35
2018-04-23T05:53:23.597Z,17.45
2018-04-23T05:55:50.237Z,20.52
2018-04-23T05:58:16.895Z,18.23
2018-04-23T06:00:43.535Z,18.95
2018-04-23T06:03:10.241Z,16.75
2018-04-23T06:05:36.808Z,17.17
2018-04-23T06:08:03.473Z,18.85
2018-04-23T06:10:30.665Z,18.65
2018-04-23T06:12:57.292Z,17.05
2018-04-23T06:15:23.955Z,17.40
2018-04-23T06:17:50.609Z,17.37
2018-04-23T06:20:17.246Z,18.20
2018-04-23T06:22:43.882Z,16.55
2018-04-23T06:25:10.537Z,16.10
2018-04-23T06:27:37.174Z,14.23
2018-04-23T06:30:03.839Z,15.52
2018-04-23T06:32:30.466Z,14.87
2018-04-23T06:34:57.106Z,14.25
2018-04-23T06:37:23.746Z,13.90
2018-04-23T06:39:50.357Z,13.50
2018-04-23T06:42:16.987Z,12.63
2018-04-23T06:44:43.606Z,14.10
2018-04-23T06:47:10.236Z,13.47
2018-04-23T06:49:36.849Z,13.70
2018-04-23T06:52:03.490Z,14.30
2018-04-23T06:54:30.113Z,13.60
2018-04-23T06:56:56.747Z,15.50
2018-04-23T06:59:23.372Z,14.27
2018-04-23T07:01:50.006Z,13.90
2018-04-23T07:04:16.625Z,13.60
2018-04-23T07:06:43.855Z,12.80
2018-04-23T07:09:10.514Z,14.50
2018-04-23T07:11:37.141Z,20.80
2018-04-23T07:14:03.765Z,12.80
2018-04-23T07:16:30.388Z,13.00
2018-04-23T07:18:57.005Z,12.80
2018-04-23T07:21:23.651Z,12.87
2018-04-23T07:23:50.274Z,13.43
2018-04-23T07:26:16.886Z,11.43
2018-04-23T07:28:45.692Z,11.00
2018-04-23T07:31:12.931Z,11.47
2018-04-23T07:33:39.546Z,11.37
2018-04-23T07:36:06.174Z,10.50
2018-04-23T07:38:32.799Z,10.57
2018-04-23T07:40:59.422Z,10.50
2018-04-23T07:43:26.036Z,8.80
2018-04-23T07:45:52.681Z,8.57
2018-04-23T07:48:19.296Z,9.67
2018-04-23T07:50:45.924Z,11.00
2018-04-23T07:53:12.546Z,8.50
2018-04-23T07:55:39.171Z,10.50
2018-04-23T07:58:05.791Z,9.50
2018-04-23T08:00:32.487Z,9.23
2018-04-23T08:02:59.118Z,9.80
2018-04-23T08:05:25.743Z,8.23
2018-04-23T08:07:52.367Z,8.30
2018-04-23T08:10:18.972Z,9.33
2018-04-23T08:12:45.701Z,8.83
2018-04-23T08:15:12.361Z,9.70
2018-04-23T08:17:38.999Z,10.20
2018-04-23T08:20:05.656Z,9.27
2018-04-23T08:22:32.277Z,8.00
2018-04-23T08:24:58.892Z,8.90
2018-04-23T08:27:25.518Z,8.60
2018-04-23T08:29:52.135Z,7.63
2018-04-23T08:32:18.769Z,8.17
2018-04-23T08:34:45.374Z,8.97
2018-04-23T08:37:11.998Z,8.23
2018-04-23T08:39:38.646Z,8.37
2018-04-23T08:42:05.266Z,8.07
2018-04-23T08:44:31.989Z,8.93
2018-04-23T08:46:58.607Z,8.33
2018-04-23T08:49:25.332Z,9.50
2018-04-23T08:51:51.962Z,7.70
2018-04-23T08:54:18.582Z,10.17
2018-04-23T08:56:45.200Z,8.90
2018-04-23T08:59:11.827Z,9.70
2018-04-23T09:01:38.464Z,8.43
2018-04-23T09:04:05.096Z,9.87
2018-04-23T09:06:31.718Z,9.17
2018-04-23T09:08:58.361Z,9.57
2018-04-23T09:11:24.968Z,8.70
2018-04-23T09:13:51.587Z,8.23
2018-04-23T09:16:18.195Z,8.63
2018-04-23T09:18:44.826Z,8.27
2018-04-23T09:21:11.447Z,8.00
2018-04-23T09:23:38.082Z,8.97
2018-04-23T09:26:04.743Z,8.23
2018-04-23T09:28:31.325Z,8.10
2018-04-23T09:30:57.945Z,8.73
2018-04-23T09:33:24.555Z,8.53
2018-04-23T09:35:51.182Z,8.23
2018-04-23T09:38:17.814Z,10.37
2018-04-23T09:40:44.450Z,10.60
2018-04-23T09:43:11.513Z,9.67
2018-04-23T09:45:38.170Z,10.97
2018-04-23T09:48:04.826Z,11.40
2018-04-23T09:50:31.548Z,9.43
2018-04-23T09:52:58.216Z,9.73
2018-04-23T09:55:24.861Z,9.70
2018-04-23T09:57:52.240Z,8.70
2018-04-23T10:00:36.667Z,9.43
2018-04-23T10:03:09.316Z,9.07
2018-04-23T10:05:36.014Z,8.23
2018-04-23T10:08:02.655Z,8.33
2018-04-23T10:10:29.357Z,8.63
2018-04-23T10:12:56.011Z,7.30
2018-04-23T10:15:22.634Z,7.57
2018-04-23T10:17:49.307Z,7.13
2018-04-23T10:20:15.958Z,7.10
2018-04-23T10:22:47.021Z,7.80
2018-04-23T10:25:14.158Z,9.80
2018-04-23T10:27:40.902Z,7.87
2018-04-23T10:30:07.512Z,7.57
2018-04-23T10:32:38.215Z,9.40
2018-04-23T10:35:05.825Z,8.70
2018-04-23T10:37:36.234Z,8.67
2018-04-23T10:40:06.523Z,9.17
2018-04-23T10:42:34.016Z,9.70
2018-04-23T10:45:00.918Z,9.30
2018-04-23T10:47:31.832Z,8.83
2018-04-23T10:50:02.471Z,8.27
2018-04-23T10:52:29.094Z,8.60
2018-04-23T10:54:57.300Z,7.90
2018-04-23T10:57:28.104Z,8.10
2018-04-23T10:59:54.773Z,8.60
2018-04-23T11:02:21.425Z,7.63
2018-04-23T11:04:48.831Z,8.40
2018-04-23T11:07:16.266Z,6.10
2018-04-23T11:09:42.959Z,6.77
2018-04-23T11:12:14.658Z,6.13
2018-04-23T11:14:42.039Z,5.57
2018-04-23T11:17:08.664Z,6.40
2018-04-23T11:19:35.419Z,6.33
2018-04-23T11:22:02.039Z,7.40
2018-04-23T11:24:28.730Z,6.47
2018-04-23T11:26:59.539Z,6.90
2018-04-23T11:29:26.215Z,6.40
2018-04-23T11:31:53.706Z,6.73
2018-04-23T11:34:20.438Z,6.53
2018-04-23T11:36:52.101Z,5.60
2018-04-23T11:39:18.810Z,5.70
2018-04-23T11:41:46.109Z,6.13
2018-04-23T11:44:12.838Z,5.27
2018-04-23T11:46:40.899Z,5.13
2018-04-23T11:49:11.367Z,5.53
2018-04-23T11:51:38.092Z,4.90
2018-04-23T11:54:04.707Z,6.27
2018-04-23T11:56:31.514Z,5.17
2018-04-23T11:59:02.310Z,5.77
2018-04-23T12:01:29.077Z,6.00
2018-04-23T12:03:55.778Z,5.53
2018-04-23T12:06:27.774Z,5.67
2018-04-23T12:08:54.402Z,5.47
2018-04-23T12:11:21.136Z,6.17
2018-04-23T12:13:51.811Z,5.70
2018-04-23T12:16:22.241Z,7.03
2018-04-23T12:18:49.722Z,6.17
2018-04-23T12:21:17.626Z,5.77
2018-04-23T12:23:45.176Z,5.77
2018-04-23T12:26:11.787Z,5.50
2018-04-23T12:28:38.407Z,4.67
2018-04-23T12:31:05.075Z,4.90
2018-04-23T12:33:31.706Z,4.97
2018-04-23T12:35:58.309Z,5.37
2018-04-23T12:38:24.938Z,5.50
2018-04-23T12:40:51.550Z,5.47
2018-04-23T12:43:18.170Z,4.47
2018-04-23T12:45:44.788Z,5.57
2018-04-23T12:48:11.423Z,4.40
2018-04-23T12:50:38.039Z,5.20
2018-04-23T12:53:04.682Z,5.47
2018-04-23T12:55:31.290Z,5.30
2018-04-23T12:57:57.910Z,5.23
2018-04-23T13:00:24.541Z,5.57
2018-04-23T13:02:51.154Z,5.90
2018-04-23T13:05:17.795Z,5.50
2018-04-23T13:07:44.400Z,5.37
2018-04-23T13:10:11.030Z,6.13
2018-04-23T13:12:37.639Z,6.50
2018-04-23T13:15:04.271Z,5.77
2018-04-23T13:17:30.893Z,6.73
2018-04-23T13:19:57.518Z,6.10
2018-04-23T13:22:24.128Z,6.00
2018-04-23T13:24:50.766Z,5.20
2018-04-23T13:27:17.431Z,5.77
2018-04-23T13:29:44.068Z,5.83
2018-04-23T13:32:10.688Z,5.70
2018-04-23T13:34:37.296Z,5.77
2018-04-23T13:37:03.918Z,5.20
2018-04-23T13:39:30.555Z,5.63
2018-04-23T13:41:57.183Z,5.80
2018-04-23T13:44:23.805Z,5.83
2018-04-23T13:46:50.427Z,5.30
2018-04-23T13:49:17.039Z,4.80
2018-04-23T13:51:43.702Z,6.03
2018-04-23T13:54:10.327Z,5.83
2018-04-23T13:56:36.951Z,5.00
2018-04-23T13:59:03.794Z,6.00
2018-04-23T14:01:30.486Z,5.90
2018-04-23T14:03:57.035Z,5.80
2018-04-23T14:06:23.679Z,5.00
2018-04-23T14:08:50.306Z,5.90
2018-04-23T14:11:17.351Z,6.77
2018-04-23T14:13:44.831Z,7.47
2018-04-23T14:16:11.533Z,6.33
2018-04-23T14:18:38.173Z,7.00
2018-04-23T14:21:04.776Z,5.50
2018-04-23T14:23:31.425Z,6.97
2018-04-23T14:25:58.047Z,6.77
2018-04-23T14:28:24.674Z,6.67
2018-04-23T14:30:51.299Z,8.40
2018-04-23T14:33:17.931Z,6.67
2018-04-23T14:35:44.543Z,6.30
2018-04-23T14:38:11.180Z,7.80
2018-04-23T14:40:37.863Z,6.23
2018-04-23T14:43:04.513Z,6.93
2018-04-23T14:45:31.842Z,7.40
2018-04-23T14:47:58.478Z,7.63
2018-04-23T14:50:25.173Z,7.30
2018-04-23T14:52:51.838Z,7.80
2018-04-23T14:55:18.514Z,8.00
2018-04-23T14:57:45.127Z,8.17
2018-04-23T15:00:11.771Z,8.40
2018-04-23T15:02:38.394Z,9.60
2018-04-23T15:05:05.034Z,8.80
2018-04-23T15:07:31.687Z,8.50
2018-04-23T15:09:58.996Z,8.83
2018-04-23T15:12:25.610Z,8.70
2018-04-23T15:14:52.243Z,10.40
2018-04-23T15:17:18.854Z,9.57
2018-04-23T15:19:45.490Z,9.77
2018-04-23T15:22:12.118Z,8.87
2018-04-23T15:24:38.774Z,9.70
2018-04-23T15:27:05.410Z,9.90
2018-04-23T15:29:32.035Z,9.43
2018-04-23T15:31:58.686Z,10.70
2018-04-23T15:34:25.311Z,9.50
2018-04-23T15:36:51.942Z,9.33
2018-04-23T15:39:18.628Z,9.00
2018-04-23T15:41:45.287Z,9.90
2018-04-23T15:44:11.889Z,9.43
2018-04-23T15:46:39.212Z,9.70
2018-04-23T15:49:05.837Z,9.57
2018-04-23T15:51:32.469Z,8.90
2018-04-23T15:53:59.078Z,9.67
2018-04-23T15:56:25.710Z,9.30
2018-04-23T15:58:52.358Z,9.77
2018-04-23T16:01:18.960Z,8.50
2018-04-23T16:03:45.591Z,9.20
2018-04-23T16:06:12.207Z,8.90
2018-04-23T16:08:38.837Z,8.80
2018-04-23T16:11:05.476Z,8.60
2018-04-23T16:13:32.116Z,9.18
2018-04-23T16:15:58.766Z,8.85
2018-04-23T16:18:25.458Z,8.50
2018-04-23T16:20:52.035Z,9.18
2018-04-23T16:23:18.675Z,8.20
2018-04-23T16:25:45.304Z,8.35
2018-04-23T16:28:11.962Z,8.32
2018-04-23T16:30:38.604Z,8.95
2018-04-23T16:33:05.239Z,8.00
2018-04-23T16:35:31.885Z,7.33
2018-04-23T16:37:58.503Z,7.80
2018-04-23T16:40:25.154Z,7.25
2018-04-23T16:42:51.786Z,8.13
2018-04-23T16:45:18.433Z,7.10
2018-04-23T16:47:45.067Z,7.93
2018-04-23T16:50:12.494Z,6.50
2018-04-23T16:52:39.102Z,7.60
2018-04-23T16:55:05.738Z,6.10
2018-04-23T16:57:32.375Z,7.00
2018-04-23T16:59:59.015Z,6.57
2018-04-23T17:02:25.640Z,5.97
2018-04-23T17:04:53.130Z,5.22
2018-04-23T17:07:21.339Z,5.70
2018-04-23T17:09:49.336Z,5.65
2018-04-23T17:12:15.998Z,5.80
2018-04-23T17:14:42.917Z,7.68
2018-04-23T17:17:13.879Z,7.10
2018-04-23T17:19:41.379Z,7.00
2018-04-23T17:22:08.047Z,7.40
2018-04-23T17:24:38.880Z,6.70
2018-04-23T17:27:05.526Z,7.75
2018-04-23T17:29:33.086Z,6.80
2018-04-23T17:32:00.966Z,6.85
2018-04-23T17:34:27.650Z,7.25
2018-04-23T17:36:54.332Z,5.32
2018-04-23T17:39:20.965Z,6.45
2018-04-23T17:41:47.621Z,5.85
2018-04-23T17:44:16.628Z,5.78
2018-04-23T17:46:43.306Z,5.82
2018-04-23T17:49:10.095Z,6.12
2018-04-23T17:51:38.617Z,5.90
2018-04-23T17:54:05.795Z,6.45
2018-04-23T17:56:33.214Z,6.80
2018-04-23T17:58:59.912Z,6.45
2018-04-23T18:01:26.573Z,6.07
2018-04-23T18:03:53.240Z,6.20
2018-04-23T18:06:19.850Z,6.12
2018-04-23T18:08:46.519Z,6.50
2018-04-23T18:11:13.207Z,6.40
2018-04-23T18:13:39.888Z,5.65
2018-04-23T18:16:06.562Z,5.80
2018-04-23T18:18:37.134Z,6.25
2018-04-23T18:21:03.794Z,6.10
2018-04-23T18:23:30.534Z,6.40
2018-04-23T18:25:57.407Z,6.50
2018-04-23T18:28:24.291Z,6.28
2018-04-23T18:30:51.335Z,6.55
2018-04-23T18:33:18.511Z,5.55
2018-04-23T18:35:45.198Z,6.00
2018-04-23T18:38:11.839Z,6.15
2018-04-23T18:40:38.527Z,6.30
2018-04-23T18:43:06.072Z,5.45
2018-04-23T18:45:32.812Z,5.82
2018-04-23T18:48:00.299Z,5.93
2018-04-23T18:50:27.032Z,6.15
2018-04-23T18:52:54.327Z,5.78
2018-04-23T18:55:21.587Z,5.62
2018-04-23T18:57:48.210Z,6.90
2018-04-23T19:00:20.331Z,5.60
2018-04-23T19:02:47.593Z,5.35
2018-04-23T19:05:14.375Z,6.85
2018-04-23T19:07:41.578Z,6.35
2018-04-23T19:10:08.384Z,5.95
2018-04-23T19:12:36.654Z,6.25
2018-04-23T19:15:03.429Z,6.30
2018-04-23T19:17:30.307Z,6.35
2018-04-23T19:19:57.002Z,5.85
2018-04-23T19:22:24.515Z,6.78
2018-04-23T19:24:51.570Z,6.75
2018-04-23T19:27:19.843Z,6.45
2018-04-23T19:29:46.873Z,5.60
2018-04-23T19:32:13.761Z,6.55
2018-04-23T19:34:41.211Z,7.12
2018-04-23T19:37:08.052Z,6.28
2018-04-23T19:39:34.721Z,6.32
2018-04-23T19:42:02.090Z,6.43
2018-04-23T19:44:29.405Z,6.40
2018-04-23T19:46:56.093Z,6.95
2018-04-23T19:49:22.734Z,5.82
2018-04-23T19:51:53.280Z,5.82
2018-04-23T19:54:19.952Z,6.50
2018-04-23T19:56:46.706Z,6.82
2018-04-23T19:59:13.433Z,6.62
2018-04-23T20:01:40.960Z,6.47
2018-04-23T20:04:07.591Z,5.87
2018-04-23T20:06:34.244Z,6.47
2018-04-23T20:09:00.906Z,6.00
2018-04-23T20:11:27.568Z,6.15
2018-04-23T20:13:54.229Z,6.60
2018-04-23T20:16:21.451Z,6.50
2018-04-23T20:18:48.091Z,7.07
2018-04-23T20:21:15.682Z,6.10
2018-04-23T20:23:42.440Z,5.55
2018-04-23T20:26:09.102Z,6.70
2018-04-23T20:28:35.839Z,6.60
2018-04-23T20:31:04.195Z,5.68
2018-04-23T20:33:31.011Z,6.28
2018-04-23T20:35:57.697Z,5.40
2018-04-23T20:38:28.275Z,5.15
2018-04-23T20:40:54.953Z,5.00
2018-04-23T20:43:21.573Z,5.00
2018-04-23T20:45:48.227Z,4.55
2018-04-23T20:48:15.635Z,4.65
2018-04-23T20:50:44.156Z,5.00
2018-04-23T20:53:11.574Z,5.80
2018-04-23T20:55:39.278Z,5.25
2018-04-23T20:58:05.901Z,5.37
2018-04-23T21:00:32.535Z,4.90
2018-04-23T21:02:59.157Z,4.62
2018-04-23T21:05:26.477Z,5.45
2018-04-23T21:07:53.099Z,5.50
2018-04-23T21:10:19.749Z,5.20
2018-04-23T21:12:46.440Z,5.28
2018-04-23T21:15:13.747Z,5.50
2018-04-23T21:17:40.402Z,6.03
2018-04-23T21:20:10.623Z,5.90
2018-04-23T21:22:37.301Z,6.10
2018-04-23T21:25:07.888Z,5.72
2018-04-23T21:27:34.549Z,6.12
2018-04-23T21:30:03.803Z,6.25
2018-04-23T21:32:31.241Z,5.90
2018-04-23T21:34:57.913Z,6.65
2018-04-23T21:37:25.202Z,6.62
2018-04-23T21:39:51.835Z,6.70
2018-04-23T21:42:18.467Z,6.93
2018-04-23T21:44:45.121Z,6.68
2018-04-23T21:47:11.749Z,6.78
2018-04-23T21:49:38.375Z,6.87
2018-04-23T21:52:04.999Z,6.70
2018-04-23T21:54:32.442Z,7.43
2018-04-23T21:56:59.505Z,6.50
2018-04-23T21:59:26.174Z,6.85
2018-04-23T22:01:53.675Z,7.47
2018-04-23T22:04:20.339Z,7.20
2018-04-23T22:06:47.056Z,6.50
2018-04-23T22:09:14.973Z,6.25
2018-04-23T22:11:41.606Z,6.40
2018-04-23T22:14:08.779Z,6.60
2018-04-23T22:16:35.694Z,7.82
2018-04-23T22:19:02.310Z,6.80
2018-04-23T22:21:28.955Z,6.68
2018-04-23T22:23:55.651Z,7.03
2018-04-23T22:26:22.375Z,7.00
2018-04-23T22:28:48.969Z,6.80
2018-04-23T22:31:16.325Z,6.65
2018-04-23T22:33:43.783Z,6.57
2018-04-23T22:36:10.518Z,6.82
2018-04-23T22:38:37.170Z,6.45
2018-04-23T22:41:07.638Z,6.32
2018-04-23T22:43:35.108Z,6.45
2018-04-23T22:46:01.727Z,6.20
2018-04-23T22:48:28.399Z,6.30
2018-04-23T22:50:55.018Z,7.20
2018-04-23T22:53:21.658Z,6.90
2018-04-23T22:55:48.304Z,6.43
2018-04-23T22:58:14.934Z,7.10
2018-04-23T23:00:43.120Z,7.30
2018-04-23T23:03:09.793Z,7.50
2018-04-23T23:05:37.707Z,7.85
2018-04-23T23:08:04.334Z,6.97
2018-04-23T23:10:35.239Z,7.95
2018-04-23T23:13:01.898Z,7.05
2018-04-23T23:15:28.505Z,7.00
2018-04-23T23:17:56.098Z,7.47
2018-04-23T23:20:22.728Z,7.70
2018-04-23T23:22:51.224Z,7.65
2018-04-23T23:25:17.850Z,7.40
2018-04-23T23:27:44.781Z,7.03
2018-04-23T23:30:11.491Z,6.60
2018-04-23T23:32:38.099Z,8.90
2018-04-23T23:35:08.416Z,7.90
2018-04-23T23:37:35.560Z,7.20
2018-04-23T23:40:02.254Z,7.80
2018-04-23T23:42:28.857Z,7.87
2018-04-23T23:44:55.499Z,8.30
2018-04-23T23:47:25.957Z,7.45
2018-04-23T23:49:53.204Z,7.03
2018-04-23T23:52:19.839Z,7.78
2018-04-23T23:54:46.480Z,6.43
2018-04-23T23:57:13.154Z,8.57
2018-04-23T23:59:40.689Z,7.60
